sensor_id;sensor_type;location;lat;lon;timestamp;P1;durP1;ratioP1;P2;durP2;ratioP2
72085;SDS011;64750;52.134;5.424;2023-01-19T00:00:28;6.43;;;5.00;;
72085;SDS011;64750;52.134;5.424;2023-01-19T00:02:54;8.40;;;5.63;;
72085;SDS011;64750;52.134;5.424;2023-01-19T00:05:21;5.72;;;5.30;;
72085;SDS011;64750;52.134;5.424;2023-01-19T00:07:47;5.78;;;5.22;;
72085;SDS011;64750;52.134;5.424;2023-01-19T00:10:14;5.50;;;5.00;;
72085;SDS011;64750;52.134;5.424;2023-01-19T00:12:41;6.70;;;4.63;;
72085;SDS011;64750;52.134;5.424;2023-01-19T00:15:07;5.20;;;4.70;;
72085;SDS011;64750;52.134;5.424;2023-01-19T00:17:34;5.70;;;4.50;;
72085;SDS011;64750;52.134;5.424;2023-01-19T00:20:01;6.80;;;5.28;;
72085;SDS011;64750;52.134;5.424;2023-01-19T00:22:29;5.63;;;4.97;;
72085;SDS011;64750;52.134;5.424;2023-01-19T00:24:55;6.57;;;4.53;;
72085;SDS011;64750;52.134;5.424;2023-01-19T00:27:21;4.80;;;4.20;;
72085;SDS011;64750;52.134;5.424;2023-01-19T00:29:48;3.90;;;2.78;;
72085;SDS011;64750;52.134;5.424;2023-01-19T00:32:14;1.90;;;1.67;;
72085;SDS011;64750;52.134;5.424;2023-01-19T00:34:42;2.10;;;1.40;;
72085;SDS011;64750;52.134;5.424;2023-01-19T00:37:15;1.97;;;1.00;;
72085;SDS011;64750;52.134;5.424;2023-01-19T00:39:42;1.33;;;1.00;;
72085;SDS011;64750;52.134;5.424;2023-01-19T00:42:12;1.60;;;1.25;;
72085;SDS011;64750;52.134;5.424;2023-01-19T00:44:57;2.22;;;1.00;;
72085;SDS011;64750;52.134;5.424;2023-01-19T00:47:23;1.52;;;1.42;;
72085;SDS011;64750;52.134;5.424;2023-01-19T00:49:50;1.30;;;1.20;;
72085;SDS011;64750;52.134;5.424;2023-01-19T00:52:16;1.30;;;1.10;;
72085;SDS011;64750;52.134;5.424;2023-01-19T00:54:43;1.65;;;1.30;;
72085;SDS011;64750;52.134;5.424;2023-01-19T00:57:09;2.83;;;2.40;;
72085;SDS011;64750;52.134;5.424;2023-01-19T00:59:36;3.38;;;3.05;;
72085;SDS011;64750;52.134;5.424;2023-01-19T01:02:02;3.67;;;3.30;;
72085;SDS011;64750;52.134;5.424;2023-01-19T01:04:29;6.80;;;4.57;;
72085;SDS011;64750;52.134;5.424;2023-01-19T01:06:55;4.93;;;4.50;;
72085;SDS011;64750;52.134;5.424;2023-01-19T01:09:22;4.57;;;4.18;;
72085;SDS011;64750;52.134;5.424;2023-01-19T01:11:49;5.65;;;5.15;;
72085;SDS011;64750;52.134;5.424;2023-01-19T01:14:16;5.57;;;5.07;;
72085;SDS011;64750;52.134;5.424;2023-01-19T01:16:43;6.80;;;4.80;;
72085;SDS011;64750;52.134;5.424;2023-01-19T01:19:09;5.88;;;4.72;;
72085;SDS011;64750;52.134;5.424;2023-01-19T01:21:36;4.88;;;4.10;;
72085;SDS011;64750;52.134;5.424;2023-01-19T01:24:02;5.05;;;4.55;;
72085;SDS011;64750;52.134;5.424;2023-01-19T01:26:29;4.50;;;4.10;;
72085;SDS011;64750;52.134;5.424;2023-01-19T01:28:55;4.30;;;4.00;;
72085;SDS011;64750;52.134;5.424;2023-01-19T01:31:22;4.85;;;4.28;;
72085;SDS011;64750;52.134;5.424;2023-01-19T01:33:48;3.83;;;3.35;;
72085;SDS011;64750;52.134;5.424;2023-01-19T01:36:15;3.38;;;3.17;;
72085;SDS011;64750;52.134;5.424;2023-01-19T01:38:44;3.70;;;3.40;;
72085;SDS011;64750;52.134;5.424;2023-01-19T01:41:10;3.47;;;3.22;;
72085;SDS011;64750;52.134;5.424;2023-01-19T01:43:41;4.00;;;2.65;;
72085;SDS011;64750;52.134;5.424;2023-01-19T01:46:10;3.50;;;2.47;;
72085;SDS011;64750;52.134;5.424;2023-01-19T01:48:37;3.83;;;2.20;;
72085;SDS011;64750;52.134;5.424;2023-01-19T01:51:06;2.53;;;2.27;;
72085;SDS011;64750;52.134;5.424;2023-01-19T01:54:00;2.10;;;2.00;;
72085;SDS011;64750;52.134;5.424;2023-01-19T01:56:36;1.98;;;1.80;;
72085;SDS011;64750;52.134;5.424;2023-01-19T01:59:06;2.08;;;1.60;;
72085;SDS011;64750;52.134;5.424;2023-01-19T02:01:36;1.98;;;1.10;;
72085;SDS011;64750;52.134;5.424;2023-01-19T02:04:22;1.40;;;0.90;;
72085;SDS011;64750;52.134;5.424;2023-01-19T02:06:49;1.30;;;1.20;;
72085;SDS011;64750;52.134;5.424;2023-01-19T02:09:35;1.30;;;0.70;;
72085;SDS011;64750;52.134;5.424;2023-01-19T02:12:21;1.42;;;0.80;;
72085;SDS011;64750;52.134;5.424;2023-01-19T02:15:13;0.68;;;0.52;;
72085;SDS011;64750;52.134;5.424;2023-01-19T02:17:42;0.37;;;0.30;;
72085;SDS011;64750;52.134;5.424;2023-01-19T02:20:08;0.65;;;0.30;;
72085;SDS011;64750;52.134;5.424;2023-01-19T02:22:39;1.33;;;0.40;;
72085;SDS011;64750;52.134;5.424;2023-01-19T02:25:11;1.27;;;0.22;;
72085;SDS011;64750;52.134;5.424;2023-01-19T02:27:38;1.33;;;0.40;;
72085;SDS011;64750;52.134;5.424;2023-01-19T02:30:05;0.70;;;0.40;;
72085;SDS011;64750;52.134;5.424;2023-01-19T02:32:33;0.77;;;0.40;;
72085;SDS011;64750;52.134;5.424;2023-01-19T02:34:59;0.47;;;0.20;;
72085;SDS011;64750;52.134;5.424;2023-01-19T02:37:25;1.20;;;0.32;;
72085;SDS011;64750;52.134;5.424;2023-01-19T02:39:56;2.03;;;0.35;;
72085;SDS011;64750;52.134;5.424;2023-01-19T02:42:31;1.27;;;0.40;;
72085;SDS011;64750;52.134;5.424;2023-01-19T02:45:02;2.85;;;0.28;;
72085;SDS011;64750;52.134;5.424;2023-01-19T02:47:38;0.40;;;0.20;;
72085;SDS011;64750;52.134;5.424;2023-01-19T02:50:27;1.23;;;0.40;;
72085;SDS011;64750;52.134;5.424;2023-01-19T02:55:55;3.10;;;0.70;;
72085;SDS011;64750;52.134;5.424;2023-01-19T02:58:43;1.13;;;0.30;;
72085;SDS011;64750;52.134;5.424;2023-01-19T03:07:15;5.85;;;0.40;;
72085;SDS011;64750;52.134;5.424;2023-01-19T03:09:49;1.57;;;0.50;;
72085;SDS011;64750;52.134;5.424;2023-01-19T03:15:34;1.40;;;0.20;;
72085;SDS011;64750;52.134;5.424;2023-01-19T03:18:08;0.32;;;0.20;;
72085;SDS011;64750;52.134;5.424;2023-01-19T03:20:37;1.95;;;0.68;;
72085;SDS011;64750;52.134;5.424;2023-01-19T03:23:06;2.47;;;0.40;;
72085;SDS011;64750;52.134;5.424;2023-01-19T03:25:36;2.38;;;0.20;;
72085;SDS011;64750;52.134;5.424;2023-01-19T03:28:04;1.98;;;0.28;;
72085;SDS011;64750;52.134;5.424;2023-01-19T03:30:32;2.35;;;0.43;;
72085;SDS011;64750;52.134;5.424;2023-01-19T03:33:08;1.90;;;0.20;;
72085;SDS011;64750;52.134;5.424;2023-01-19T03:35:40;1.47;;;0.40;;
72085;SDS011;64750;52.134;5.424;2023-01-19T03:38:12;0.35;;;0.13;;
72085;SDS011;64750;52.134;5.424;2023-01-19T03:40:41;2.35;;;0.40;;
72085;SDS011;64750;52.134;5.424;2023-01-19T03:43:08;1.60;;;0.20;;
72085;SDS011;64750;52.134;5.424;2023-01-19T03:45:36;2.03;;;0.20;;
72085;SDS011;64750;52.134;5.424;2023-01-19T03:48:04;0.53;;;0.20;;
72085;SDS011;64750;52.134;5.424;2023-01-19T03:50:31;0.38;;;0.10;;
72085;SDS011;64750;52.134;5.424;2023-01-19T03:55:31;1.20;;;0.30;;
72085;SDS011;64750;52.134;5.424;2023-01-19T03:57:57;1.05;;;0.22;;
72085;SDS011;64750;52.134;5.424;2023-01-19T04:00:24;1.70;;;0.20;;
72085;SDS011;64750;52.134;5.424;2023-01-19T04:02:51;1.85;;;0.30;;
72085;SDS011;64750;52.134;5.424;2023-01-19T04:05:17;4.43;;;0.35;;
72085;SDS011;64750;52.134;5.424;2023-01-19T04:07:46;1.42;;;0.20;;
72085;SDS011;64750;52.134;5.424;2023-01-19T04:10:14;1.42;;;0.32;;
72085;SDS011;64750;52.134;5.424;2023-01-19T04:12:42;2.47;;;0.30;;
72085;SDS011;64750;52.134;5.424;2023-01-19T04:15:08;1.95;;;0.30;;
72085;SDS011;64750;52.134;5.424;2023-01-19T04:17:34;2.25;;;0.32;;
72085;SDS011;64750;52.134;5.424;2023-01-19T04:20:01;0.98;;;0.40;;
72085;SDS011;64750;52.134;5.424;2023-01-19T04:22:27;4.43;;;0.30;;
72085;SDS011;64750;52.134;5.424;2023-01-19T04:24:54;3.77;;;0.30;;
72085;SDS011;64750;52.134;5.424;2023-01-19T04:27:21;2.80;;;0.30;;
72085;SDS011;64750;52.134;5.424;2023-01-19T04:29:47;2.55;;;0.55;;
72085;SDS011;64750;52.134;5.424;2023-01-19T04:32:14;2.30;;;0.20;;
72085;SDS011;64750;52.134;5.424;2023-01-19T04:34:40;2.10;;;0.38;;
72085;SDS011;64750;52.134;5.424;2023-01-19T04:37:07;0.30;;;0.10;;
72085;SDS011;64750;52.134;5.424;2023-01-19T04:39:36;0.52;;;0.20;;
72085;SDS011;64750;52.134;5.424;2023-01-19T04:42:02;1.23;;;0.20;;
72085;SDS011;64750;52.134;5.424;2023-01-19T04:44:28;0.82;;;0.25;;
72085;SDS011;64750;52.134;5.424;2023-01-19T04:46:55;4.95;;;0.30;;
72085;SDS011;64750;52.134;5.424;2023-01-19T04:49:21;0.30;;;0.30;;
72085;SDS011;64750;52.134;5.424;2023-01-19T04:51:47;1.00;;;0.20;;
72085;SDS011;64750;52.134;5.424;2023-01-19T04:54:14;1.88;;;0.30;;
72085;SDS011;64750;52.134;5.424;2023-01-19T04:56:40;2.20;;;0.28;;
72085;SDS011;64750;52.134;5.424;2023-01-19T04:59:07;3.10;;;0.30;;
72085;SDS011;64750;52.134;5.424;2023-01-19T05:01:33;1.47;;;0.20;;
72085;SDS011;64750;52.134;5.424;2023-01-19T05:04:00;0.82;;;0.30;;
72085;SDS011;64750;52.134;5.424;2023-01-19T05:06:28;1.60;;;0.20;;
72085;SDS011;64750;52.134;5.424;2023-01-19T05:08:55;3.30;;;0.52;;
72085;SDS011;64750;52.134;5.424;2023-01-19T05:11:21;6.40;;;0.90;;
72085;SDS011;64750;52.134;5.424;2023-01-19T05:13:48;4.10;;;0.30;;
72085;SDS011;64750;52.134;5.424;2023-01-19T05:16:16;2.78;;;0.30;;
72085;SDS011;64750;52.134;5.424;2023-01-19T05:18:43;2.38;;;0.25;;
72085;SDS011;64750;52.134;5.424;2023-01-19T05:21:09;0.98;;;0.60;;
72085;SDS011;64750;52.134;5.424;2023-01-19T05:23:35;2.97;;;0.65;;
72085;SDS011;64750;52.134;5.424;2023-01-19T05:26:02;3.90;;;0.20;;
72085;SDS011;64750;52.134;5.424;2023-01-19T05:28:29;3.20;;;0.65;;
72085;SDS011;64750;52.134;5.424;2023-01-19T05:30:57;8.27;;;0.68;;
72085;SDS011;64750;52.134;5.424;2023-01-19T05:33:23;3.03;;;0.30;;
72085;SDS011;64750;52.134;5.424;2023-01-19T05:35:51;4.25;;;0.80;;
72085;SDS011;64750;52.134;5.424;2023-01-19T05:38:19;4.67;;;0.57;;
72085;SDS011;64750;52.134;5.424;2023-01-19T05:41:00;7.10;;;0.70;;
72085;SDS011;64750;52.134;5.424;2023-01-19T05:43:27;2.30;;;0.52;;
72085;SDS011;64750;52.134;5.424;2023-01-19T05:45:53;4.00;;;0.68;;
72085;SDS011;64750;52.134;5.424;2023-01-19T05:48:20;10.63;;;0.70;;
72085;SDS011;64750;52.134;5.424;2023-01-19T05:50:46;9.87;;;1.07;;
72085;SDS011;64750;52.134;5.424;2023-01-19T05:53:14;1.60;;;0.30;;
72085;SDS011;64750;52.134;5.424;2023-01-19T05:55:42;6.82;;;0.85;;
72085;SDS011;64750;52.134;5.424;2023-01-19T05:58:08;4.53;;;0.68;;
72085;SDS011;64750;52.134;5.424;2023-01-19T06:00:35;12.68;;;1.15;;
72085;SDS011;64750;52.134;5.424;2023-01-19T06:03:01;4.93;;;1.20;;
72085;SDS011;64750;52.134;5.424;2023-01-19T06:05:28;4.28;;;1.15;;
72085;SDS011;64750;52.134;5.424;2023-01-19T06:07:55;7.65;;;1.95;;
72085;SDS011;64750;52.134;5.424;2023-01-19T06:10:22;6.55;;;1.13;;
72085;SDS011;64750;52.134;5.424;2023-01-19T06:12:48;6.95;;;0.75;;
72085;SDS011;64750;52.134;5.424;2023-01-19T06:15:17;7.17;;;0.80;;
72085;SDS011;64750;52.134;5.424;2023-01-19T06:17:43;4.03;;;1.02;;
72085;SDS011;64750;52.134;5.424;2023-01-19T06:20:10;2.97;;;0.55;;
72085;SDS011;64750;52.134;5.424;2023-01-19T06:22:39;5.85;;;0.60;;
72085;SDS011;64750;52.134;5.424;2023-01-19T06:25:05;7.28;;;1.30;;
72085;SDS011;64750;52.134;5.424;2023-01-19T06:27:32;2.53;;;0.67;;
72085;SDS011;64750;52.134;5.424;2023-01-19T06:29:58;6.57;;;0.70;;
72085;SDS011;64750;52.134;5.424;2023-01-19T06:32:24;5.50;;;0.82;;
72085;SDS011;64750;52.134;5.424;2023-01-19T06:34:51;5.35;;;0.70;;
72085;SDS011;64750;52.134;5.424;2023-01-19T06:37:19;5.25;;;0.70;;
72085;SDS011;64750;52.134;5.424;2023-01-19T06:39:45;6.10;;;1.10;;
72085;SDS011;64750;52.134;5.424;2023-01-19T06:42:12;4.32;;;0.55;;
72085;SDS011;64750;52.134;5.424;2023-01-19T06:44:38;8.40;;;1.00;;
72085;SDS011;64750;52.134;5.424;2023-01-19T06:47:12;4.75;;;0.75;;
72085;SDS011;64750;52.134;5.424;2023-01-19T06:49:41;9.25;;;0.70;;
72085;SDS011;64750;52.134;5.424;2023-01-19T06:52:08;8.43;;;1.07;;
72085;SDS011;64750;52.134;5.424;2023-01-19T06:54:36;4.63;;;0.70;;
72085;SDS011;64750;52.134;5.424;2023-01-19T06:57:02;7.85;;;0.95;;
72085;SDS011;64750;52.134;5.424;2023-01-19T06:59:30;8.13;;;0.77;;
72085;SDS011;64750;52.134;5.424;2023-01-19T07:01:56;4.47;;;0.85;;
72085;SDS011;64750;52.134;5.424;2023-01-19T07:04:24;2.43;;;1.10;;
72085;SDS011;64750;52.134;5.424;2023-01-19T07:06:52;6.00;;;1.05;;
72085;SDS011;64750;52.134;5.424;2023-01-19T07:09:18;2.25;;;0.90;;
72085;SDS011;64750;52.134;5.424;2023-01-19T07:11:45;6.80;;;1.15;;
72085;SDS011;64750;52.134;5.424;2023-01-19T07:14:13;6.57;;;1.63;;
72085;SDS011;64750;52.134;5.424;2023-01-19T07:16:40;2.50;;;0.83;;
72085;SDS011;64750;52.134;5.424;2023-01-19T07:19:07;3.78;;;0.88;;
72085;SDS011;64750;52.134;5.424;2023-01-19T07:21:35;5.40;;;0.82;;
72085;SDS011;64750;52.134;5.424;2023-01-19T07:24:02;7.82;;;1.25;;
72085;SDS011;64750;52.134;5.424;2023-01-19T07:26:28;4.40;;;1.50;;
72085;SDS011;64750;52.134;5.424;2023-01-19T07:28:56;5.70;;;0.90;;
72085;SDS011;64750;52.134;5.424;2023-01-19T07:31:22;5.30;;;1.25;;
72085;SDS011;64750;52.134;5.424;2023-01-19T07:33:48;3.35;;;0.52;;
72085;SDS011;64750;52.134;5.424;2023-01-19T07:36:15;1.52;;;0.70;;
72085;SDS011;64750;52.134;5.424;2023-01-19T07:38:41;4.32;;;1.13;;
72085;SDS011;64750;52.134;5.424;2023-01-19T07:41:08;2.93;;;0.73;;
72085;SDS011;64750;52.134;5.424;2023-01-19T07:43:35;5.88;;;1.25;;
72085;SDS011;64750;52.134;5.424;2023-01-19T07:46:02;4.60;;;0.93;;
72085;SDS011;64750;52.134;5.424;2023-01-19T07:48:30;8.68;;;1.02;;
72085;SDS011;64750;52.134;5.424;2023-01-19T07:51:00;7.15;;;1.75;;
72085;SDS011;64750;52.134;5.424;2023-01-19T07:53:30;4.63;;;1.67;;
72085;SDS011;64750;52.134;5.424;2023-01-19T07:55:57;7.47;;;1.17;;
72085;SDS011;64750;52.134;5.424;2023-01-19T07:58:24;3.70;;;1.15;;
72085;SDS011;64750;52.134;5.424;2023-01-19T08:00:51;11.15;;;1.45;;
72085;SDS011;64750;52.134;5.424;2023-01-19T08:03:18;9.32;;;2.15;;
72085;SDS011;64750;52.134;5.424;2023-01-19T08:05:44;8.17;;;1.60;;
72085;SDS011;64750;52.134;5.424;2023-01-19T08:08:15;6.43;;;1.48;;
72085;SDS011;64750;52.134;5.424;2023-01-19T08:10:42;5.45;;;1.23;;
72085;SDS011;64750;52.134;5.424;2023-01-19T08:13:08;4.07;;;1.92;;
72085;SDS011;64750;52.134;5.424;2023-01-19T08:15:35;3.28;;;1.20;;
72085;SDS011;64750;52.134;5.424;2023-01-19T08:18:02;6.83;;;1.40;;
72085;SDS011;64750;52.134;5.424;2023-01-19T08:20:30;7.85;;;1.42;;
72085;SDS011;64750;52.134;5.424;2023-01-19T08:22:57;9.23;;;1.52;;
72085;SDS011;64750;52.134;5.424;2023-01-19T08:25:35;8.02;;;1.55;;
72085;SDS011;64750;52.134;5.424;2023-01-19T08:28:10;12.27;;;1.95;;
72085;SDS011;64750;52.134;5.424;2023-01-19T08:30:38;4.50;;;1.10;;
72085;SDS011;64750;52.134;5.424;2023-01-19T08:33:05;5.35;;;1.05;;
72085;SDS011;64750;52.134;5.424;2023-01-19T08:35:39;5.07;;;1.58;;
72085;SDS011;64750;52.134;5.424;2023-01-19T08:38:07;4.88;;;1.48;;
72085;SDS011;64750;52.134;5.424;2023-01-19T08:40:35;9.82;;;1.55;;
72085;SDS011;64750;52.134;5.424;2023-01-19T08:43:04;7.33;;;1.63;;
72085;SDS011;64750;52.134;5.424;2023-01-19T08:45:36;6.15;;;1.48;;
72085;SDS011;64750;52.134;5.424;2023-01-19T08:48:13;13.60;;;1.98;;
72085;SDS011;64750;52.134;5.424;2023-01-19T08:50:41;7.38;;;1.83;;
72085;SDS011;64750;52.134;5.424;2023-01-19T08:53:10;4.68;;;1.65;;
72085;SDS011;64750;52.134;5.424;2023-01-19T08:55:36;3.80;;;1.23;;
72085;SDS011;64750;52.134;5.424;2023-01-19T08:58:03;2.45;;;1.60;;
72085;SDS011;64750;52.134;5.424;2023-01-19T09:00:31;7.60;;;1.38;;
72085;SDS011;64750;52.134;5.424;2023-01-19T09:03:03;6.00;;;1.13;;
72085;SDS011;64750;52.134;5.424;2023-01-19T09:05:32;7.60;;;1.60;;
72085;SDS011;64750;52.134;5.424;2023-01-19T09:08:03;8.20;;;1.57;;
72085;SDS011;64750;52.134;5.424;2023-01-19T09:10:31;7.68;;;1.50;;
72085;SDS011;64750;52.134;5.424;2023-01-19T09:13:01;8.57;;;1.40;;
72085;SDS011;64750;52.134;5.424;2023-01-19T09:15:30;11.25;;;1.00;;
72085;SDS011;64750;52.134;5.424;2023-01-19T09:18:01;6.68;;;1.25;;
72085;SDS011;64750;52.134;5.424;2023-01-19T09:20:28;4.60;;;1.00;;
72085;SDS011;64750;52.134;5.424;2023-01-19T09:22:56;7.93;;;1.02;;
72085;SDS011;64750;52.134;5.424;2023-01-19T09:25:23;5.18;;;0.88;;
72085;SDS011;64750;52.134;5.424;2023-01-19T09:27:50;3.67;;;0.65;;
72085;SDS011;64750;52.134;5.424;2023-01-19T09:30:17;3.10;;;0.73;;
72085;SDS011;64750;52.134;5.424;2023-01-19T09:32:44;4.83;;;0.73;;
72085;SDS011;64750;52.134;5.424;2023-01-19T09:35:11;3.67;;;0.75;;
72085;SDS011;64750;52.134;5.424;2023-01-19T09:37:38;5.10;;;1.17;;
72085;SDS011;64750;52.134;5.424;2023-01-19T09:40:04;6.10;;;0.60;;
72085;SDS011;64750;52.134;5.424;2023-01-19T09:45:12;9.37;;;1.40;;
72085;SDS011;64750;52.134;5.424;2023-01-19T09:47:54;6.90;;;0.70;;
72085;SDS011;64750;52.134;5.424;2023-01-19T09:50:25;9.65;;;0.73;;
72085;SDS011;64750;52.134;5.424;2023-01-19T09:52:57;2.90;;;0.55;;
72085;SDS011;64750;52.134;5.424;2023-01-19T09:55:39;6.95;;;1.25;;
72085;SDS011;64750;52.134;5.424;2023-01-19T09:58:09;4.93;;;0.80;;
72085;SDS011;64750;52.134;5.424;2023-01-19T10:00:42;8.27;;;0.95;;
72085;SDS011;64750;52.134;5.424;2023-01-19T10:03:16;4.35;;;0.50;;
72085;SDS011;64750;52.134;5.424;2023-01-19T10:05:47;5.63;;;0.85;;
72085;SDS011;64750;52.134;5.424;2023-01-19T10:14:19;4.22;;;0.68;;
72085;SDS011;64750;52.134;5.424;2023-01-19T10:16:59;8.18;;;1.08;;
72085;SDS011;64750;52.134;5.424;2023-01-19T10:19:29;5.10;;;0.75;;
72085;SDS011;64750;52.134;5.424;2023-01-19T10:22:06;7.03;;;1.00;;
72085;SDS011;64750;52.134;5.424;2023-01-19T10:24:52;5.70;;;0.40;;
72085;SDS011;64750;52.134;5.424;2023-01-19T10:27:31;3.70;;;0.63;;
72085;SDS011;64750;52.134;5.424;2023-01-19T10:30:00;4.80;;;0.75;;
72085;SDS011;64750;52.134;5.424;2023-01-19T10:32:28;1.67;;;0.50;;
72085;SDS011;64750;52.134;5.424;2023-01-19T10:35:01;5.00;;;0.60;;
72085;SDS011;64750;52.134;5.424;2023-01-19T10:37:49;4.07;;;0.70;;
72085;SDS011;64750;52.134;5.424;2023-01-19T10:40:29;8.25;;;0.70;;
72085;SDS011;64750;52.134;5.424;2023-01-19T10:42:59;5.38;;;0.70;;
72085;SDS011;64750;52.134;5.424;2023-01-19T10:45:27;2.80;;;0.55;;
72085;SDS011;64750;52.134;5.424;2023-01-19T10:47:57;2.63;;;0.60;;
72085;SDS011;64750;52.134;5.424;2023-01-19T10:50:30;3.03;;;0.50;;
72085;SDS011;64750;52.134;5.424;2023-01-19T10:53:02;0.60;;;0.30;;
72085;SDS011;64750;52.134;5.424;2023-01-19T10:55:35;5.13;;;0.88;;
72085;SDS011;64750;52.134;5.424;2023-01-19T10:58:03;6.38;;;0.50;;
72085;SDS011;64750;52.134;5.424;2023-01-19T11:00:40;5.07;;;0.77;;
72085;SDS011;64750;52.134;5.424;2023-01-19T11:06:15;4.72;;;0.77;;
72085;SDS011;64750;52.134;5.424;2023-01-19T11:08:46;5.93;;;1.05;;
72085;SDS011;64750;52.134;5.424;2023-01-19T11:11:15;3.03;;;0.70;;
72085;SDS011;64750;52.134;5.424;2023-01-19T11:13:43;2.88;;;0.55;;
72085;SDS011;64750;52.134;5.424;2023-01-19T11:16:15;3.80;;;0.70;;
72085;SDS011;64750;52.134;5.424;2023-01-19T11:18:55;3.58;;;0.50;;
72085;SDS011;64750;52.134;5.424;2023-01-19T11:21:24;1.48;;;0.47;;
72085;SDS011;64750;52.134;5.424;2023-01-19T11:23:59;0.80;;;0.30;;
72085;SDS011;64750;52.134;5.424;2023-01-19T11:26:34;3.17;;;0.45;;
72085;SDS011;64750;52.134;5.424;2023-01-19T11:29:22;3.30;;;0.33;;
72085;SDS011;64750;52.134;5.424;2023-01-19T11:31:52;2.53;;;0.60;;
72085;SDS011;64750;52.134;5.424;2023-01-19T11:34:24;4.95;;;0.50;;
72085;SDS011;64750;52.134;5.424;2023-01-19T11:37:00;2.90;;;0.60;;
72085;SDS011;64750;52.134;5.424;2023-01-19T11:39:29;4.30;;;0.77;;
72085;SDS011;64750;52.134;5.424;2023-01-19T11:41:58;4.13;;;0.60;;
72085;SDS011;64750;52.134;5.424;2023-01-19T11:44:31;2.13;;;0.40;;
72085;SDS011;64750;52.134;5.424;2023-01-19T11:47:05;2.17;;;0.50;;
72085;SDS011;64750;52.134;5.424;2023-01-19T11:49:50;2.75;;;0.30;;
72085;SDS011;64750;52.134;5.424;2023-01-19T11:53:03;2.78;;;0.50;;
72085;SDS011;64750;52.134;5.424;2023-01-19T11:55:37;4.93;;;0.60;;
72085;SDS011;64750;52.134;5.424;2023-01-19T11:58:12;3.28;;;0.40;;
72085;SDS011;64750;52.134;5.424;2023-01-19T12:00:41;3.70;;;0.45;;
72085;SDS011;64750;52.134;5.424;2023-01-19T12:03:12;2.70;;;0.40;;
72085;SDS011;64750;52.134;5.424;2023-01-19T12:05:47;2.55;;;0.63;;
72085;SDS011;64750;52.134;5.424;2023-01-19T12:08:20;2.93;;;0.30;;
72085;SDS011;64750;52.134;5.424;2023-01-19T12:10:52;1.67;;;0.50;;
72085;SDS011;64750;52.134;5.424;2023-01-19T12:13:23;3.80;;;0.50;;
72085;SDS011;64750;52.134;5.424;2023-01-19T12:16:16;2.33;;;0.40;;
72085;SDS011;64750;52.134;5.424;2023-01-19T12:21:50;2.03;;;0.30;;
72085;SDS011;64750;52.134;5.424;2023-01-19T12:24:28;3.72;;;0.82;;
72085;SDS011;64750;52.134;5.424;2023-01-19T12:27:04;7.28;;;0.73;;
72085;SDS011;64750;52.134;5.424;2023-01-19T12:29:43;3.10;;;0.50;;
72085;SDS011;64750;52.134;5.424;2023-01-19T12:39:54;2.13;;;0.40;;
72085;SDS011;64750;52.134;5.424;2023-01-19T12:42:22;1.45;;;0.50;;
72085;SDS011;64750;52.134;5.424;2023-01-19T12:44:50;4.93;;;0.60;;
72085;SDS011;64750;52.134;5.424;2023-01-19T12:47:31;0.80;;;0.30;;
72085;SDS011;64750;52.134;5.424;2023-01-19T12:50:03;3.22;;;0.38;;
72085;SDS011;64750;52.134;5.424;2023-01-19T12:58:13;2.55;;;0.63;;
72085;SDS011;64750;52.134;5.424;2023-01-19T13:00:44;4.90;;;0.50;;
72085;SDS011;64750;52.134;5.424;2023-01-19T13:13:39;2.87;;;0.50;;
72085;SDS011;64750;52.134;5.424;2023-01-19T13:21:13;1.17;;;0.47;;
72085;SDS011;64750;52.134;5.424;2023-01-19T13:23:56;7.03;;;0.40;;
72085;SDS011;64750;52.134;5.424;2023-01-19T13:26:25;6.47;;;0.70;;
72085;SDS011;64750;52.134;5.424;2023-01-19T13:28:55;3.88;;;0.40;;
72085;SDS011;64750;52.134;5.424;2023-01-19T13:31:32;4.97;;;0.40;;
72085;SDS011;64750;52.134;5.424;2023-01-19T13:34:00;2.28;;;0.30;;
72085;SDS011;64750;52.134;5.424;2023-01-19T13:36:32;2.28;;;0.43;;
72085;SDS011;64750;52.134;5.424;2023-01-19T13:39:16;2.00;;;0.40;;
72085;SDS011;64750;52.134;5.424;2023-01-19T13:41:49;2.53;;;0.50;;
72085;SDS011;64750;52.134;5.424;2023-01-19T13:44:20;1.52;;;0.40;;
72085;SDS011;64750;52.134;5.424;2023-01-19T13:46:49;2.30;;;0.50;;
72085;SDS011;64750;52.134;5.424;2023-01-19T13:49:18;1.73;;;0.50;;
72085;SDS011;64750;52.134;5.424;2023-01-19T13:52:02;1.03;;;0.60;;
72085;SDS011;64750;52.134;5.424;2023-01-19T13:54:54;2.15;;;0.50;;
72085;SDS011;64750;52.134;5.424;2023-01-19T13:57:33;2.85;;;0.60;;
72085;SDS011;64750;52.134;5.424;2023-01-19T14:02:40;3.97;;;0.60;;
72085;SDS011;64750;52.134;5.424;2023-01-19T14:05:23;4.93;;;0.30;;
72085;SDS011;64750;52.134;5.424;2023-01-19T14:10:34;1.80;;;0.30;;
72085;SDS011;64750;52.134;5.424;2023-01-19T14:13:11;2.20;;;0.43;;
72085;SDS011;64750;52.134;5.424;2023-01-19T14:15:40;1.92;;;0.40;;
72085;SDS011;64750;52.134;5.424;2023-01-19T14:18:09;1.90;;;0.40;;
72085;SDS011;64750;52.134;5.424;2023-01-19T14:20:51;4.70;;;0.55;;
72085;SDS011;64750;52.134;5.424;2023-01-19T14:31:47;4.90;;;0.67;;
72085;SDS011;64750;52.134;5.424;2023-01-19T14:37:20;0.63;;;0.30;;
72085;SDS011;64750;52.134;5.424;2023-01-19T14:42:24;3.85;;;0.55;;
72085;SDS011;64750;52.134;5.424;2023-01-19T14:44:54;2.90;;;0.40;;
72085;SDS011;64750;52.134;5.424;2023-01-19T14:47:36;2.95;;;0.40;;
72085;SDS011;64750;52.134;5.424;2023-01-19T14:50:05;1.40;;;0.30;;
72085;SDS011;64750;52.134;5.424;2023-01-19T14:52:37;4.20;;;0.45;;
72085;SDS011;64750;52.134;5.424;2023-01-19T14:55:06;1.63;;;0.50;;
72085;SDS011;64750;52.134;5.424;2023-01-19T14:57:44;4.40;;;0.50;;
72085;SDS011;64750;52.134;5.424;2023-01-19T15:00:12;2.03;;;0.50;;
72085;SDS011;64750;52.134;5.424;2023-01-19T15:02:42;2.25;;;0.47;;
72085;SDS011;64750;52.134;5.424;2023-01-19T15:05:10;5.38;;;0.43;;
72085;SDS011;64750;52.134;5.424;2023-01-19T15:07:37;1.27;;;0.65;;
72085;SDS011;64750;52.134;5.424;2023-01-19T15:10:09;3.07;;;0.57;;
72085;SDS011;64750;52.134;5.424;2023-01-19T15:12:42;0.85;;;0.40;;
72085;SDS011;64750;52.134;5.424;2023-01-19T15:15:13;2.90;;;0.80;;
72085;SDS011;64750;52.134;5.424;2023-01-19T15:17:41;1.90;;;0.45;;
72085;SDS011;64750;52.134;5.424;2023-01-19T15:20:10;2.58;;;0.30;;
72085;SDS011;64750;52.134;5.424;2023-01-19T15:22:41;3.33;;;0.30;;
72085;SDS011;64750;52.134;5.424;2023-01-19T15:25:08;1.00;;;0.30;;
72085;SDS011;64750;52.134;5.424;2023-01-19T15:27:37;1.85;;;0.50;;
72085;SDS011;64750;52.134;5.424;2023-01-19T15:30:11;4.50;;;1.30;;
72085;SDS011;64750;52.134;5.424;2023-01-19T15:32:39;3.83;;;0.30;;
72085;SDS011;64750;52.134;5.424;2023-01-19T15:35:16;3.47;;;0.50;;
72085;SDS011;64750;52.134;5.424;2023-01-19T15:37:44;4.80;;;0.60;;
72085;SDS011;64750;52.134;5.424;2023-01-19T15:40:11;5.40;;;0.40;;
72085;SDS011;64750;52.134;5.424;2023-01-19T15:42:38;4.40;;;0.30;;
72085;SDS011;64750;52.134;5.424;2023-01-19T15:47:52;3.17;;;0.47;;
72085;SDS011;64750;52.134;5.424;2023-01-19T15:50:19;1.40;;;0.35;;
72085;SDS011;64750;52.134;5.424;2023-01-19T15:52:45;3.80;;;0.85;;
72085;SDS011;64750;52.134;5.424;2023-01-19T15:55:12;0.40;;;0.30;;
72085;SDS011;64750;52.134;5.424;2023-01-19T15:57:40;1.15;;;0.40;;
72085;SDS011;64750;52.134;5.424;2023-01-19T16:00:07;2.73;;;0.37;;
72085;SDS011;64750;52.134;5.424;2023-01-19T16:02:35;2.75;;;0.70;;
72085;SDS011;64750;52.134;5.424;2023-01-19T16:05:02;1.95;;;0.60;;
72085;SDS011;64750;52.134;5.424;2023-01-19T16:07:28;3.67;;;0.63;;
72085;SDS011;64750;52.134;5.424;2023-01-19T16:09:55;1.17;;;0.77;;
72085;SDS011;64750;52.134;5.424;2023-01-19T16:12:21;1.50;;;1.07;;
72085;SDS011;64750;52.134;5.424;2023-01-19T16:14:48;1.48;;;0.70;;
72085;SDS011;64750;52.134;5.424;2023-01-19T16:17:14;1.48;;;0.95;;
72085;SDS011;64750;52.134;5.424;2023-01-19T16:19:40;2.83;;;0.80;;
72085;SDS011;64750;52.134;5.424;2023-01-19T16:22:07;1.63;;;0.80;;
72085;SDS011;64750;52.134;5.424;2023-01-19T16:24:36;2.20;;;0.80;;